sensor_id;sensor_type;location;lat;lon;timestamp;P1;durP1;ratioP1;P2;durP2;ratioP2
55186;SDS011;55457;52.002;5.464;2023-04-25T00:00:43;2.72;;;1.52;;
55186;SDS011;55457;52.002;5.464;2023-04-25T00:03:08;3.60;;;1.75;;
55186;SDS011;55457;52.002;5.464;2023-04-25T00:05:34;3.35;;;2.03;;
55186;SDS011;55457;52.002;5.464;2023-04-25T00:08:02;2.47;;;1.33;;
55186;SDS011;55457;52.002;5.464;2023-04-25T00:10:27;3.70;;;1.77;;
55186;SDS011;55457;52.002;5.464;2023-04-25T00:12:53;4.18;;;2.80;;
55186;SDS011;55457;52.002;5.464;2023-04-25T00:15:18;3.65;;;1.55;;
55186;SDS011;55457;52.002;5.464;2023-04-25T00:17:43;3.45;;;1.77;;
55186;SDS011;55457;52.002;5.464;2023-04-25T00:20:10;2.45;;;1.65;;
55186;SDS011;55457;52.002;5.464;2023-04-25T00:22:36;2.78;;;1.80;;
55186;SDS011;55457;52.002;5.464;2023-04-25T00:25:05;3.53;;;1.40;;
55186;SDS011;55457;52.002;5.464;2023-04-25T00:27:31;3.80;;;1.55;;
55186;SDS011;55457;52.002;5.464;2023-04-25T00:29:56;2.08;;;1.38;;
55186;SDS011;55457;52.002;5.464;2023-04-25T00:32:21;2.83;;;1.50;;
55186;SDS011;55457;52.002;5.464;2023-04-25T00:34:47;4.20;;;1.40;;
55186;SDS011;55457;52.002;5.464;2023-04-25T00:37:12;3.10;;;1.63;;
55186;SDS011;55457;52.002;5.464;2023-04-25T00:39:38;2.67;;;1.45;;
55186;SDS011;55457;52.002;5.464;2023-04-25T00:42:03;3.50;;;2.03;;
55186;SDS011;55457;52.002;5.464;2023-04-25T00:44:30;3.88;;;2.25;;
55186;SDS011;55457;52.002;5.464;2023-04-25T00:46:57;2.35;;;1.75;;
55186;SDS011;55457;52.002;5.464;2023-04-25T00:49:22;2.95;;;1.88;;
55186;SDS011;55457;52.002;5.464;2023-04-25T00:51:48;2.72;;;1.65;;
55186;SDS011;55457;52.002;5.464;2023-04-25T00:54:13;2.60;;;1.90;;
55186;SDS011;55457;52.002;5.464;2023-04-25T00:56:39;2.78;;;1.67;;
55186;SDS011;55457;52.002;5.464;2023-04-25T00:59:05;3.72;;;1.80;;
55186;SDS011;55457;52.002;5.464;2023-04-25T01:01:30;3.22;;;1.85;;
55186;SDS011;55457;52.002;5.464;2023-04-25T01:03:56;2.13;;;1.20;;
55186;SDS011;55457;52.002;5.464;2023-04-25T01:06:23;2.78;;;1.20;;
55186;SDS011;55457;52.002;5.464;2023-04-25T01:08:49;3.35;;;1.70;;
55186;SDS011;55457;52.002;5.464;2023-04-25T01:11:14;3.80;;;1.70;;
55186;SDS011;55457;52.002;5.464;2023-04-25T01:13:40;4.03;;;2.22;;
55186;SDS011;55457;52.002;5.464;2023-04-25T01:16:05;6.13;;;2.13;;
55186;SDS011;55457;52.002;5.464;2023-04-25T01:18:31;1.95;;;1.23;;
55186;SDS011;55457;52.002;5.464;2023-04-25T01:21:02;3.55;;;1.92;;
55186;SDS011;55457;52.002;5.464;2023-04-25T01:23:38;2.50;;;1.55;;
55186;SDS011;55457;52.002;5.464;2023-04-25T01:26:04;3.28;;;1.60;;
55186;SDS011;55457;52.002;5.464;2023-04-25T01:28:32;4.38;;;1.73;;
55186;SDS011;55457;52.002;5.464;2023-04-25T01:30:58;3.90;;;1.70;;
55186;SDS011;55457;52.002;5.464;2023-04-25T01:33:24;2.67;;;1.50;;
55186;SDS011;55457;52.002;5.464;2023-04-25T01:35:50;4.30;;;2.03;;
55186;SDS011;55457;52.002;5.464;2023-04-25T01:38:15;2.40;;;1.60;;
55186;SDS011;55457;52.002;5.464;2023-04-25T01:40:41;3.35;;;1.55;;
55186;SDS011;55457;52.002;5.464;2023-04-25T01:43:09;3.53;;;1.95;;
55186;SDS011;55457;52.002;5.464;2023-04-25T01:45:37;2.63;;;1.58;;
55186;SDS011;55457;52.002;5.464;2023-04-25T01:48:10;3.10;;;1.90;;
55186;SDS011;55457;52.002;5.464;2023-04-25T01:50:37;2.42;;;1.67;;
55186;SDS011;55457;52.002;5.464;2023-04-25T01:53:04;3.05;;;1.52;;
55186;SDS011;55457;52.002;5.464;2023-04-25T01:55:30;2.13;;;1.45;;
55186;SDS011;55457;52.002;5.464;2023-04-25T01:57:55;3.22;;;1.70;;
55186;SDS011;55457;52.002;5.464;2023-04-25T02:00:21;3.30;;;1.80;;
55186;SDS011;55457;52.002;5.464;2023-04-25T02:02:47;1.95;;;1.30;;
55186;SDS011;55457;52.002;5.464;2023-04-25T02:05:13;2.47;;;1.50;;
55186;SDS011;55457;52.002;5.464;2023-04-25T02:07:38;3.90;;;1.88;;
55186;SDS011;55457;52.002;5.464;2023-04-25T02:10:04;3.97;;;1.77;;
55186;SDS011;55457;52.002;5.464;2023-04-25T02:12:30;3.78;;;2.05;;
55186;SDS011;55457;52.002;5.464;2023-04-25T02:14:56;3.38;;;1.48;;
55186;SDS011;55457;52.002;5.464;2023-04-25T02:17:21;4.60;;;1.55;;
55186;SDS011;55457;52.002;5.464;2023-04-25T02:19:46;1.88;;;1.00;;
55186;SDS011;55457;52.002;5.464;2023-04-25T02:22:12;3.55;;;1.98;;
55186;SDS011;55457;52.002;5.464;2023-04-25T02:24:38;3.00;;;1.83;;
55186;SDS011;55457;52.002;5.464;2023-04-25T02:27:03;4.30;;;1.63;;
55186;SDS011;55457;52.002;5.464;2023-04-25T02:29:29;5.07;;;1.80;;
55186;SDS011;55457;52.002;5.464;2023-04-25T02:31:54;3.35;;;1.92;;
55186;SDS011;55457;52.002;5.464;2023-04-25T02:34:20;2.85;;;1.60;;
55186;SDS011;55457;52.002;5.464;2023-04-25T02:36:46;3.13;;;1.70;;
55186;SDS011;55457;52.002;5.464;2023-04-25T02:39:11;2.75;;;1.42;;
55186;SDS011;55457;52.002;5.464;2023-04-25T02:41:36;2.80;;;1.65;;
55186;SDS011;55457;52.002;5.464;2023-04-25T02:44:02;3.25;;;1.65;;
55186;SDS011;55457;52.002;5.464;2023-04-25T02:46:27;3.45;;;2.03;;
55186;SDS011;55457;52.002;5.464;2023-04-25T02:48:52;2.50;;;1.38;;
55186;SDS011;55457;52.002;5.464;2023-04-25T02:51:18;5.13;;;2.00;;
55186;SDS011;55457;52.002;5.464;2023-04-25T02:53:43;2.83;;;1.65;;
55186;SDS011;55457;52.002;5.464;2023-04-25T02:56:09;2.28;;;1.60;;
55186;SDS011;55457;52.002;5.464;2023-04-25T02:58:34;2.15;;;1.48;;
55186;SDS011;55457;52.002;5.464;2023-04-25T03:00:59;4.93;;;1.45;;
55186;SDS011;55457;52.002;5.464;2023-04-25T03:03:25;2.67;;;1.80;;
55186;SDS011;55457;52.002;5.464;2023-04-25T03:05:51;3.72;;;1.70;;
55186;SDS011;55457;52.002;5.464;2023-04-25T03:08:16;2.40;;;1.60;;
55186;SDS011;55457;52.002;5.464;2023-04-25T03:10:42;3.03;;;1.95;;
55186;SDS011;55457;52.002;5.464;2023-04-25T03:13:08;3.30;;;1.63;;
55186;SDS011;55457;52.002;5.464;2023-04-25T03:15:34;2.78;;;1.75;;
55186;SDS011;55457;52.002;5.464;2023-04-25T03:18:00;3.13;;;2.10;;
55186;SDS011;55457;52.002;5.464;2023-04-25T03:20:25;3.50;;;2.00;;
55186;SDS011;55457;52.002;5.464;2023-04-25T03:22:51;2.28;;;1.38;;
55186;SDS011;55457;52.002;5.464;2023-04-25T03:25:16;4.03;;;1.85;;
55186;SDS011;55457;52.002;5.464;2023-04-25T03:27:41;5.28;;;2.05;;
55186;SDS011;55457;52.002;5.464;2023-04-25T03:30:07;2.33;;;1.60;;
55186;SDS011;55457;52.002;5.464;2023-04-25T03:32:33;3.30;;;1.60;;
55186;SDS011;55457;52.002;5.464;2023-04-25T03:34:59;3.67;;;1.52;;
55186;SDS011;55457;52.002;5.464;2023-04-25T03:37:25;3.42;;;1.65;;
55186;SDS011;55457;52.002;5.464;2023-04-25T03:39:50;3.28;;;1.98;;
55186;SDS011;55457;52.002;5.464;2023-04-25T03:42:15;2.40;;;1.88;;
55186;SDS011;55457;52.002;5.464;2023-04-25T03:44:41;2.65;;;1.50;;
55186;SDS011;55457;52.002;5.464;2023-04-25T03:47:06;2.03;;;1.52;;
55186;SDS011;55457;52.002;5.464;2023-04-25T03:49:32;3.35;;;1.60;;
55186;SDS011;55457;52.002;5.464;2023-04-25T03:51:57;2.47;;;1.55;;
55186;SDS011;55457;52.002;5.464;2023-04-25T03:54:23;2.58;;;1.67;;
55186;SDS011;55457;52.002;5.464;2023-04-25T03:56:48;2.15;;;1.27;;
55186;SDS011;55457;52.002;5.464;2023-04-25T03:59:14;3.08;;;1.50;;
55186;SDS011;55457;52.002;5.464;2023-04-25T04:01:39;3.42;;;2.00;;
55186;SDS011;55457;52.002;5.464;2023-04-25T04:04:04;3.13;;;1.90;;
55186;SDS011;55457;52.002;5.464;2023-04-25T04:06:30;2.33;;;1.58;;
55186;SDS011;55457;52.002;5.464;2023-04-25T04:08:55;2.67;;;1.40;;
55186;SDS011;55457;52.002;5.464;2023-04-25T04:11:21;1.92;;;1.17;;
55186;SDS011;55457;52.002;5.464;2023-04-25T04:13:47;2.63;;;1.77;;
55186;SDS011;55457;52.002;5.464;2023-04-25T04:16:12;3.15;;;1.23;;
55186;SDS011;55457;52.002;5.464;2023-04-25T04:18:37;2.35;;;1.50;;
55186;SDS011;55457;52.002;5.464;2023-04-25T04:21:03;2.85;;;1.80;;
55186;SDS011;55457;52.002;5.464;2023-04-25T04:23:28;3.22;;;1.60;;
55186;SDS011;55457;52.002;5.464;2023-04-25T04:25:54;1.80;;;1.48;;
55186;SDS011;55457;52.002;5.464;2023-04-25T04:28:20;2.22;;;1.80;;
55186;SDS011;55457;52.002;5.464;2023-04-25T04:30:46;2.08;;;1.45;;
55186;SDS011;55457;52.002;5.464;2023-04-25T04:33:12;2.72;;;1.42;;
55186;SDS011;55457;52.002;5.464;2023-04-25T04:35:38;3.13;;;1.48;;
55186;SDS011;55457;52.002;5.464;2023-04-25T04:38:03;3.47;;;1.50;;
55186;SDS011;55457;52.002;5.464;2023-04-25T04:40:29;2.50;;;1.40;;
55186;SDS011;55457;52.002;5.464;2023-04-25T04:42:56;3.00;;;1.52;;
55186;SDS011;55457;52.002;5.464;2023-04-25T04:45:22;3.00;;;1.40;;
55186;SDS011;55457;52.002;5.464;2023-04-25T04:47:47;2.13;;;1.73;;
55186;SDS011;55457;52.002;5.464;2023-04-25T04:50:13;2.22;;;1.58;;
55186;SDS011;55457;52.002;5.464;2023-04-25T04:52:39;3.15;;;1.50;;
55186;SDS011;55457;52.002;5.464;2023-04-25T04:55:05;2.85;;;1.92;;
55186;SDS011;55457;52.002;5.464;2023-04-25T04:57:32;3.35;;;1.75;;
55186;SDS011;55457;52.002;5.464;2023-04-25T04:59:58;3.35;;;1.80;;
55186;SDS011;55457;52.002;5.464;2023-04-25T05:02:24;1.85;;;1.20;;
55186;SDS011;55457;52.002;5.464;2023-04-25T05:04:49;2.55;;;1.42;;
55186;SDS011;55457;52.002;5.464;2023-04-25T05:07:16;2.78;;;1.70;;
55186;SDS011;55457;52.002;5.464;2023-04-25T05:09:41;2.90;;;1.33;;
55186;SDS011;55457;52.002;5.464;2023-04-25T05:12:07;2.83;;;1.58;;
55186;SDS011;55457;52.002;5.464;2023-04-25T05:14:32;3.00;;;1.73;;
55186;SDS011;55457;52.002;5.464;2023-04-25T05:16:58;3.67;;;1.42;;
55186;SDS011;55457;52.002;5.464;2023-04-25T05:19:24;2.15;;;1.23;;
55186;SDS011;55457;52.002;5.464;2023-04-25T05:21:49;3.28;;;1.55;;
55186;SDS011;55457;52.002;5.464;2023-04-25T05:24:15;1.95;;;1.48;;
55186;SDS011;55457;52.002;5.464;2023-04-25T05:26:40;3.47;;;1.35;;
55186;SDS011;55457;52.002;5.464;2023-04-25T05:29:06;3.15;;;1.50;;
55186;SDS011;55457;52.002;5.464;2023-04-25T05:31:31;1.80;;;1.48;;
55186;SDS011;55457;52.002;5.464;2023-04-25T05:33:57;2.15;;;1.10;;
55186;SDS011;55457;52.002;5.464;2023-04-25T05:36:22;2.90;;;1.20;;
55186;SDS011;55457;52.002;5.464;2023-04-25T05:38:48;2.67;;;1.60;;
55186;SDS011;55457;52.002;5.464;2023-04-25T05:41:13;3.17;;;1.75;;
55186;SDS011;55457;52.002;5.464;2023-04-25T05:43:39;1.95;;;1.20;;
55186;SDS011;55457;52.002;5.464;2023-04-25T05:46:10;1.90;;;1.00;;
55186;SDS011;55457;52.002;5.464;2023-04-25T05:48:37;5.28;;;2.47;;
55186;SDS011;55457;52.002;5.464;2023-04-25T05:51:03;2.67;;;1.40;;
55186;SDS011;55457;52.002;5.464;2023-04-25T05:53:28;3.88;;;1.88;;
55186;SDS011;55457;52.002;5.464;2023-04-25T05:55:53;4.05;;;1.67;;
55186;SDS011;55457;52.002;5.464;2023-04-25T05:58:19;2.75;;;1.98;;
55186;SDS011;55457;52.002;5.464;2023-04-25T06:00:44;2.25;;;1.40;;
55186;SDS011;55457;52.002;5.464;2023-04-25T06:03:09;2.72;;;1.35;;
55186;SDS011;55457;52.002;5.464;2023-04-25T06:05:35;2.47;;;1.75;;
55186;SDS011;55457;52.002;5.464;2023-04-25T06:08:01;1.85;;;1.30;;
55186;SDS011;55457;52.002;5.464;2023-04-25T06:10:26;2.25;;;1.63;;
55186;SDS011;55457;52.002;5.464;2023-04-25T06:12:51;2.58;;;1.58;;
55186;SDS011;55457;52.002;5.464;2023-04-25T06:15:17;2.22;;;1.80;;
55186;SDS011;55457;52.002;5.464;2023-04-25T06:17:42;2.42;;;1.60;;
55186;SDS011;55457;52.002;5.464;2023-04-25T06:20:08;2.70;;;1.50;;
55186;SDS011;55457;52.002;5.464;2023-04-25T06:22:33;2.72;;;1.33;;
55186;SDS011;55457;52.002;5.464;2023-04-25T06:24:59;2.30;;;1.60;;
55186;SDS011;55457;52.002;5.464;2023-04-25T06:27:25;2.20;;;1.33;;
55186;SDS011;55457;52.002;5.464;2023-04-25T06:29:50;2.67;;;1.58;;
55186;SDS011;55457;52.002;5.464;2023-04-25T06:32:15;2.42;;;1.45;;
55186;SDS011;55457;52.002;5.464;2023-04-25T06:34:42;3.25;;;1.63;;
55186;SDS011;55457;52.002;5.464;2023-04-25T06:37:08;2.00;;;1.25;;
55186;SDS011;55457;52.002;5.464;2023-04-25T06:39:34;2.33;;;1.30;;
55186;SDS011;55457;52.002;5.464;2023-04-25T06:41:59;2.50;;;1.58;;
55186;SDS011;55457;52.002;5.464;2023-04-25T06:44:25;2.65;;;1.42;;
55186;SDS011;55457;52.002;5.464;2023-04-25T06:46:51;2.00;;;1.40;;
55186;SDS011;55457;52.002;5.464;2023-04-25T06:49:16;4.35;;;2.17;;
55186;SDS011;55457;52.002;5.464;2023-04-25T06:51:42;2.88;;;1.70;;
55186;SDS011;55457;52.002;5.464;2023-04-25T06:54:07;2.17;;;1.35;;
55186;SDS011;55457;52.002;5.464;2023-04-25T06:56:33;3.08;;;1.23;;
55186;SDS011;55457;52.002;5.464;2023-04-25T06:58:58;3.95;;;1.50;;
55186;SDS011;55457;52.002;5.464;2023-04-25T07:01:25;4.03;;;1.60;;
55186;SDS011;55457;52.002;5.464;2023-04-25T07:03:50;3.58;;;1.63;;
55186;SDS011;55457;52.002;5.464;2023-04-25T07:06:16;3.35;;;1.40;;
55186;SDS011;55457;52.002;5.464;2023-04-25T07:08:41;3.00;;;1.48;;
55186;SDS011;55457;52.002;5.464;2023-04-25T07:11:06;2.05;;;1.15;;
55186;SDS011;55457;52.002;5.464;2023-04-25T07:13:32;2.50;;;1.60;;
55186;SDS011;55457;52.002;5.464;2023-04-25T07:15:57;1.92;;;1.20;;
55186;SDS011;55457;52.002;5.464;2023-04-25T07:18:22;1.98;;;1.30;;
55186;SDS011;55457;52.002;5.464;2023-04-25T07:20:48;2.92;;;1.63;;
55186;SDS011;55457;52.002;5.464;2023-04-25T07:23:13;2.17;;;1.50;;
55186;SDS011;55457;52.002;5.464;2023-04-25T07:25:39;3.05;;;1.50;;
55186;SDS011;55457;52.002;5.464;2023-04-25T07:28:04;2.10;;;1.10;;
55186;SDS011;55457;52.002;5.464;2023-04-25T07:30:29;1.67;;;1.10;;
55186;SDS011;55457;52.002;5.464;2023-04-25T07:32:55;2.58;;;1.30;;
55186;SDS011;55457;52.002;5.464;2023-04-25T07:35:20;1.75;;;1.20;;
55186;SDS011;55457;52.002;5.464;2023-04-25T07:37:46;1.83;;;1.10;;
55186;SDS011;55457;52.002;5.464;2023-04-25T07:40:11;2.63;;;1.27;;
55186;SDS011;55457;52.002;5.464;2023-04-25T07:42:37;1.85;;;1.20;;
55186;SDS011;55457;52.002;5.464;2023-04-25T07:45:02;2.22;;;1.33;;
55186;SDS011;55457;52.002;5.464;2023-04-25T07:47:28;2.67;;;1.20;;
55186;SDS011;55457;52.002;5.464;2023-04-25T07:49:53;1.88;;;1.33;;
55186;SDS011;55457;52.002;5.464;2023-04-25T07:52:19;2.33;;;1.10;;
55186;SDS011;55457;52.002;5.464;2023-04-25T07:54:44;1.83;;;1.50;;
55186;SDS011;55457;52.002;5.464;2023-04-25T07:57:10;2.67;;;1.00;;
55186;SDS011;55457;52.002;5.464;2023-04-25T07:59:35;2.40;;;1.50;;
55186;SDS011;55457;52.002;5.464;2023-04-25T08:02:01;1.98;;;1.27;;
55186;SDS011;55457;52.002;5.464;2023-04-25T08:04:27;2.60;;;1.38;;
55186;SDS011;55457;52.002;5.464;2023-04-25T08:06:52;2.47;;;1.20;;
55186;SDS011;55457;52.002;5.464;2023-04-25T08:09:21;2.90;;;1.55;;
55186;SDS011;55457;52.002;5.464;2023-04-25T08:11:46;2.85;;;1.40;;
55186;SDS011;55457;52.002;5.464;2023-04-25T08:14:12;2.08;;;0.90;;
55186;SDS011;55457;52.002;5.464;2023-04-25T08:16:38;3.50;;;1.35;;
55186;SDS011;55457;52.002;5.464;2023-04-25T08:19:03;3.33;;;1.63;;
55186;SDS011;55457;52.002;5.464;2023-04-25T08:21:29;2.25;;;1.48;;
55186;SDS011;55457;52.002;5.464;2023-04-25T08:23:56;1.42;;;0.85;;
55186;SDS011;55457;52.002;5.464;2023-04-25T08:26:23;2.70;;;1.98;;
55186;SDS011;55457;52.002;5.464;2023-04-25T08:28:48;3.72;;;1.40;;
55186;SDS011;55457;52.002;5.464;2023-04-25T08:31:14;2.88;;;1.35;;
55186;SDS011;55457;52.002;5.464;2023-04-25T08:33:39;3.15;;;1.23;;
55186;SDS011;55457;52.002;5.464;2023-04-25T08:36:05;2.78;;;1.40;;
55186;SDS011;55457;52.002;5.464;2023-04-25T08:38:31;1.60;;;1.10;;
55186;SDS011;55457;52.002;5.464;2023-04-25T08:40:56;1.77;;;1.05;;
55186;SDS011;55457;52.002;5.464;2023-04-25T08:43:24;2.40;;;1.33;;
55186;SDS011;55457;52.002;5.464;2023-04-25T08:45:50;2.00;;;0.95;;
55186;SDS011;55457;52.002;5.464;2023-04-25T08:48:21;2.60;;;1.20;;
55186;SDS011;55457;52.002;5.464;2023-04-25T08:53:27;4.87;;;1.53;;
55186;SDS011;55457;52.002;5.464;2023-04-25T08:55:54;2.00;;;1.00;;
55186;SDS011;55457;52.002;5.464;2023-04-25T08:58:22;3.45;;;1.60;;
55186;SDS011;55457;52.002;5.464;2023-04-25T09:00:48;1.58;;;1.05;;
55186;SDS011;55457;52.002;5.464;2023-04-25T09:03:14;3.40;;;1.35;;
55186;SDS011;55457;52.002;5.464;2023-04-25T09:05:40;3.53;;;1.30;;
55186;SDS011;55457;52.002;5.464;2023-04-25T09:08:06;2.00;;;1.10;;
55186;SDS011;55457;52.002;5.464;2023-04-25T09:10:32;2.55;;;0.88;;
55186;SDS011;55457;52.002;5.464;2023-04-25T09:13:01;2.55;;;1.40;;
55186;SDS011;55457;52.002;5.464;2023-04-25T09:15:28;3.15;;;1.40;;
55186;SDS011;55457;52.002;5.464;2023-04-25T09:17:55;1.90;;;1.20;;
55186;SDS011;55457;52.002;5.464;2023-04-25T09:20:24;1.88;;;1.20;;
55186;SDS011;55457;52.002;5.464;2023-04-25T09:22:49;2.65;;;1.20;;
55186;SDS011;55457;52.002;5.464;2023-04-25T09:25:27;2.35;;;1.25;;
55186;SDS011;55457;52.002;5.464;2023-04-25T09:28:00;2.28;;;1.00;;
55186;SDS011;55457;52.002;5.464;2023-04-25T09:30:29;2.13;;;0.90;;
55186;SDS011;55457;52.002;5.464;2023-04-25T09:32:56;2.33;;;1.10;;
55186;SDS011;55457;52.002;5.464;2023-04-25T09:35:28;2.05;;;1.33;;
55186;SDS011;55457;52.002;5.464;2023-04-25T09:37:53;3.33;;;1.20;;
55186;SDS011;55457;52.002;5.464;2023-04-25T09:40:20;2.00;;;1.27;;
55186;SDS011;55457;52.002;5.464;2023-04-25T09:42:46;2.80;;;1.00;;
55186;SDS011;55457;52.002;5.464;2023-04-25T09:45:12;1.95;;;1.10;;
55186;SDS011;55457;52.002;5.464;2023-04-25T09:47:40;2.22;;;1.30;;
55186;SDS011;55457;52.002;5.464;2023-04-25T09:50:13;3.00;;;1.42;;
55186;SDS011;55457;52.002;5.464;2023-04-25T09:52:40;2.50;;;1.13;;
55186;SDS011;55457;52.002;5.464;2023-04-25T09:55:06;3.67;;;1.02;;
55186;SDS011;55457;52.002;5.464;2023-04-25T09:57:31;1.45;;;0.95;;
55186;SDS011;55457;52.002;5.464;2023-04-25T09:59:57;4.07;;;1.45;;
55186;SDS011;55457;52.002;5.464;2023-04-25T10:02:26;1.95;;;0.90;;
55186;SDS011;55457;52.002;5.464;2023-04-25T10:04:55;3.13;;;1.13;;
55186;SDS011;55457;52.002;5.464;2023-04-25T10:07:24;1.95;;;1.10;;
55186;SDS011;55457;52.002;5.464;2023-04-25T10:09:55;2.00;;;1.10;;
55186;SDS011;55457;52.002;5.464;2023-04-25T10:12:25;3.33;;;1.70;;
55186;SDS011;55457;52.002;5.464;2023-04-25T10:14:52;2.53;;;1.00;;
55186;SDS011;55457;52.002;5.464;2023-04-25T10:17:17;1.63;;;0.93;;
55186;SDS011;55457;52.002;5.464;2023-04-25T10:19:45;2.85;;;0.70;;
55186;SDS011;55457;52.002;5.464;2023-04-25T10:24:50;2.45;;;1.10;;
55186;SDS011;55457;52.002;5.464;2023-04-25T10:27:16;1.60;;;0.73;;
55186;SDS011;55457;52.002;5.464;2023-04-25T10:29:43;3.22;;;1.35;;
55186;SDS011;55457;52.002;5.464;2023-04-25T10:32:08;2.30;;;0.90;;
55186;SDS011;55457;52.002;5.464;2023-04-25T10:34:43;1.55;;;1.20;;
55186;SDS011;55457;52.002;5.464;2023-04-25T10:37:13;1.58;;;0.65;;
55186;SDS011;55457;52.002;5.464;2023-04-25T10:39:39;3.28;;;1.10;;
55186;SDS011;55457;52.002;5.464;2023-04-25T10:42:06;1.75;;;0.82;;
55186;SDS011;55457;52.002;5.464;2023-04-25T10:44:32;2.40;;;1.17;;
55186;SDS011;55457;52.002;5.464;2023-04-25T10:46:59;2.75;;;0.88;;
55186;SDS011;55457;52.002;5.464;2023-04-25T10:49:35;2.78;;;1.15;;
55186;SDS011;55457;52.002;5.464;2023-04-25T10:54:53;2.40;;;0.93;;
55186;SDS011;55457;52.002;5.464;2023-04-25T11:00:07;2.28;;;1.00;;
55186;SDS011;55457;52.002;5.464;2023-04-25T11:03:18;2.35;;;0.90;;
55186;SDS011;55457;52.002;5.464;2023-04-25T11:07:55;1.20;;;0.90;;
55186;SDS011;55457;52.002;5.464;2023-04-25T11:10:26;1.25;;;0.80;;
55186;SDS011;55457;52.002;5.464;2023-04-25T11:12:56;2.00;;;0.95;;
55186;SDS011;55457;52.002;5.464;2023-04-25T11:15:25;2.92;;;1.10;;
55186;SDS011;55457;52.002;5.464;2023-04-25T11:17:51;1.73;;;0.77;;
55186;SDS011;55457;52.002;5.464;2023-04-25T11:20:18;1.95;;;0.95;;
55186;SDS011;55457;52.002;5.464;2023-04-25T11:22:44;1.45;;;1.10;;
55186;SDS011;55457;52.002;5.464;2023-04-25T11:25:11;3.35;;;1.50;;
55186;SDS011;55457;52.002;5.464;2023-04-25T11:27:38;2.13;;;0.82;;
55186;SDS011;55457;52.002;5.464;2023-04-25T11:30:25;3.50;;;1.00;;
55186;SDS011;55457;52.002;5.464;2023-04-25T11:32:51;1.77;;;1.08;;
55186;SDS011;55457;52.002;5.464;2023-04-25T11:35:17;3.88;;;0.98;;
55186;SDS011;55457;52.002;5.464;2023-04-25T11:37:43;3.25;;;1.20;;
55186;SDS011;55457;52.002;5.464;2023-04-25T11:40:09;1.80;;;0.90;;
55186;SDS011;55457;52.002;5.464;2023-04-25T11:42:37;2.20;;;1.33;;
55186;SDS011;55457;52.002;5.464;2023-04-25T11:45:04;1.88;;;1.00;;
55186;SDS011;55457;52.002;5.464;2023-04-25T11:47:30;1.73;;;0.90;;
55186;SDS011;55457;52.002;5.464;2023-04-25T11:50:00;1.60;;;0.70;;
55186;SDS011;55457;52.002;5.464;2023-04-25T11:52:36;1.90;;;0.60;;
55186;SDS011;55457;52.002;5.464;2023-04-25T11:55:07;1.92;;;1.02;;
55186;SDS011;55457;52.002;5.464;2023-04-25T11:57:50;1.50;;;1.00;;
55186;SDS011;55457;52.002;5.464;2023-04-25T12:00:17;1.25;;;0.90;;
55186;SDS011;55457;52.002;5.464;2023-04-25T12:02:55;0.98;;;0.63;;
55186;SDS011;55457;52.002;5.464;2023-04-25T12:05:24;1.10;;;0.60;;
55186;SDS011;55457;52.002;5.464;2023-04-25T12:07:51;0.70;;;0.63;;
55186;SDS011;55457;52.002;5.464;2023-04-25T12:10:17;3.60;;;1.10;;
55186;SDS011;55457;52.002;5.464;2023-04-25T12:12:45;1.15;;;0.82;;
55186;SDS011;55457;52.002;5.464;2023-04-25T12:15:12;1.70;;;1.05;;
55186;SDS011;55457;52.002;5.464;2023-04-25T12:17:47;2.25;;;1.25;;
55186;SDS011;55457;52.002;5.464;2023-04-25T12:20:15;1.00;;;0.75;;
55186;SDS011;55457;52.002;5.464;2023-04-25T12:22:42;4.20;;;1.10;;
55186;SDS011;55457;52.002;5.464;2023-04-25T12:25:10;1.85;;;1.10;;
55186;SDS011;55457;52.002;5.464;2023-04-25T12:27:36;2.13;;;0.80;;
55186;SDS011;55457;52.002;5.464;2023-04-25T12:30:02;3.10;;;0.90;;
55186;SDS011;55457;52.002;5.464;2023-04-25T12:32:28;2.33;;;1.00;;
55186;SDS011;55457;52.002;5.464;2023-04-25T12:34:54;0.90;;;0.60;;
55186;SDS011;55457;52.002;5.464;2023-04-25T12:37:19;1.60;;;0.82;;
55186;SDS011;55457;52.002;5.464;2023-04-25T12:39:45;1.55;;;0.82;;
55186;SDS011;55457;52.002;5.464;2023-04-25T12:42:11;3.15;;;0.90;;
55186;SDS011;55457;52.002;5.464;2023-04-25T12:44:39;1.65;;;0.93;;
55186;SDS011;55457;52.002;5.464;2023-04-25T12:47:04;1.58;;;0.70;;
55186;SDS011;55457;52.002;5.464;2023-04-25T12:49:30;1.52;;;0.90;;
55186;SDS011;55457;52.002;5.464;2023-04-25T12:51:57;2.88;;;0.85;;
55186;SDS011;55457;52.002;5.464;2023-04-25T12:54:23;1.83;;;0.90;;
55186;SDS011;55457;52.002;5.464;2023-04-25T12:56:49;1.08;;;0.70;;
55186;SDS011;55457;52.002;5.464;2023-04-25T12:59:15;2.20;;;1.00;;
55186;SDS011;55457;52.002;5.464;2023-04-25T13:01:40;1.63;;;1.10;;
55186;SDS011;55457;52.002;5.464;2023-04-25T13:04:06;1.65;;;0.90;;
55186;SDS011;55457;52.002;5.464;2023-04-25T13:06:31;1.95;;;0.80;;
55186;SDS011;55457;52.002;5.464;2023-04-25T13:08:56;1.60;;;0.77;;
55186;SDS011;55457;52.002;5.464;2023-04-25T13:11:22;3.90;;;1.05;;
55186;SDS011;55457;52.002;5.464;2023-04-25T13:13:47;2.08;;;1.00;;
55186;SDS011;55457;52.002;5.464;2023-04-25T13:16:13;1.27;;;0.60;;
55186;SDS011;55457;52.002;5.464;2023-04-25T13:18:41;0.73;;;0.70;;
55186;SDS011;55457;52.002;5.464;2023-04-25T13:21:07;1.35;;;0.70;;
55186;SDS011;55457;52.002;5.464;2023-04-25T13:23:34;1.38;;;0.80;;
55186;SDS011;55457;52.002;5.464;2023-04-25T13:25:59;1.58;;;0.90;;
55186;SDS011;55457;52.002;5.464;2023-04-25T13:28:26;1.20;;;0.80;;
55186;SDS011;55457;52.002;5.464;2023-04-25T13:30:52;2.05;;;0.68;;
55186;SDS011;55457;52.002;5.464;2023-04-25T13:33:18;4.72;;;1.05;;
55186;SDS011;55457;52.002;5.464;2023-04-25T13:35:44;1.20;;;0.70;;
55186;SDS011;55457;52.002;5.464;2023-04-25T13:38:12;2.15;;;0.80;;
55186;SDS011;55457;52.002;5.464;2023-04-25T13:40:37;2.45;;;0.77;;
55186;SDS011;55457;52.002;5.464;2023-04-25T13:43:03;1.40;;;0.70;;
55186;SDS011;55457;52.002;5.464;2023-04-25T13:45:28;1.58;;;0.75;;
55186;SDS011;55457;52.002;5.464;2023-04-25T13:47:53;1.00;;;0.60;;
55186;SDS011;55457;52.002;5.464;2023-04-25T13:50:19;1.60;;;0.57;;
55186;SDS011;55457;52.002;5.464;2023-04-25T13:52:45;1.50;;;0.90;;
55186;SDS011;55457;52.002;5.464;2023-04-25T13:55:10;1.52;;;0.93;;
55186;SDS011;55457;52.002;5.464;2023-04-25T13:57:36;1.35;;;0.80;;
55186;SDS011;55457;52.002;5.464;2023-04-25T14:00:03;2.28;;;0.98;;
55186;SDS011;55457;52.002;5.464;2023-04-25T14:02:33;0.50;;;0.32;;
55186;SDS011;55457;52.002;5.464;2023-04-25T14:05:01;1.42;;;0.85;;
55186;SDS011;55457;52.002;5.464;2023-04-25T14:07:28;1.90;;;0.85;;
55186;SDS011;55457;52.002;5.464;2023-04-25T14:09:53;1.70;;;0.60;;
55186;SDS011;55457;52.002;5.464;2023-04-25T14:12:19;1.10;;;0.75;;
55186;SDS011;55457;52.002;5.464;2023-04-25T14:14:44;2.97;;;1.05;;
55186;SDS011;55457;52.002;5.464;2023-04-25T14:17:09;2.17;;;0.63;;
55186;SDS011;55457;52.002;5.464;2023-04-25T14:19:35;1.55;;;0.90;;
55186;SDS011;55457;52.002;5.464;2023-04-25T14:22:00;1.85;;;1.00;;
55186;SDS011;55457;52.002;5.464;2023-04-25T14:24:25;1.75;;;0.73;;
55186;SDS011;55457;52.002;5.464;2023-04-25T14:26:51;1.02;;;0.70;;
55186;SDS011;55457;52.002;5.464;2023-04-25T14:29:16;1.05;;;0.70;;
55186;SDS011;55457;52.002;5.464;2023-04-25T14:31:41;1.75;;;0.60;;
55186;SDS011;55457;52.002;5.464;2023-04-25T14:34:07;2.08;;;0.82;;
55186;SDS011;55457;52.002;5.464;2023-04-25T14:36:33;1.58;;;0.75;;
55186;SDS011;55457;52.002;5.464;2023-04-25T14:38:59;2.13;;;0.73;;
55186;SDS011;55457;52.002;5.464;2023-04-25T14:41:25;1.63;;;0.93;;
55186;SDS011;55457;52.002;5.464;2023-04-25T14:43:51;1.67;;;0.82;;
55186;SDS011;55457;52.002;5.464;2023-04-25T14:46:17;2.47;;;0.60;;
55186;SDS011;55457;52.002;5.464;2023-04-25T14:48:43;1.40;;;0.65;;
55186;SDS011;55457;52.002;5.464;2023-04-25T14:51:08;1.15;;;0.50;;
55186;SDS011;55457;52.002;5.464;2023-04-25T14:53:34;0.93;;;0.63;;
55186;SDS011;55457;52.002;5.464;2023-04-25T14:55:59;2.25;;;0.68;;